Time;durP1;ratioP1;P1;durP2;ratioP2;P2;SDS_P1;SDS_P2;PMS_P1;PMS_P2;Temp;Humidity;BMP_temperature;BMP_pressure;BME280_temperature;BME280_humidity;BME280_pressure;Samples;Min_cycle;Max_cycle;Signal;HPM_P1;HPM_P2
2023/08/15 00:01:11;;;;;;;5.93;2.88;;;;;;;25.20;100.00;100900.22;5054219;28;20110;-45
2023/08/15 00:03:38;;;;;;;3.88;2.75;;;;;;;25.07;100.00;100899.97;5058700;28;20079;-50
2023/08/15 00:06:04;;;;;;;4.90;2.60;;;;;;;25.13;100.00;100897.88;5052843;28;20049;-46
2023/08/15 00:08:31;;;;;;;5.10;2.70;;;;;;;25.24;100.00;100897.94;5041604;28;20519;-45
2023/08/15 00:10:57;;;;;;;5.88;2.88;;;;;;;25.28;100.00;100899.19;5053564;28;20115;-46
2023/08/15 00:13:24;;;;;;;5.65;2.70;;;;;;;25.17;100.00;100887.06;5048586;28;20080;-50
2023/08/15 00:15:50;;;;;;;5.80;2.55;;;;;;;25.24;100.00;100893.00;5042138;28;20103;-49
2023/08/15 00:18:17;;;;;;;8.00;2.50;;;;;;;25.26;100.00;100890.41;5048011;28;20453;-43
2023/08/15 00:20:47;;;;;;;4.25;2.47;;;;;;;25.17;100.00;100892.75;5048160;28;20073;-46
2023/08/15 00:23:14;;;;;;;5.25;2.60;;;;;;;25.01;100.00;100880.00;5039316;28;20132;-45
2023/08/15 00:25:42;;;;;;;7.70;2.95;;;;;;;24.89;100.00;100872.75;5046159;28;20049;-46
2023/08/15 00:28:09;;;;;;;5.70;2.85;;;;;;;24.81;100.00;100866.00;5047816;28;20049;-48
2023/08/15 00:30:35;;;;;;;7.18;2.97;;;;;;;25.10;100.00;100864.78;5047516;28;20053;-45
2023/08/15 00:33:02;;;;;;;7.55;2.90;;;;;;;25.07;100.00;100866.59;5047894;28;20049;-50
2023/08/15 00:35:29;;;;;;;4.75;2.47;;;;;;;25.11;100.00;100872.78;5049588;28;20423;-47
2023/08/15 00:37:56;;;;;;;6.90;2.47;;;;;;;25.13;100.00;100869.44;5049151;28;20048;-44
2023/08/15 00:40:23;;;;;;;5.95;2.63;;;;;;;25.19;100.00;100864.53;5050729;28;20130;-45
2023/08/15 00:42:49;;;;;;;6.35;2.80;;;;;;;25.00;100.00;100867.09;5068133;28;20507;-48
2023/08/15 00:45:16;;;;;;;6.85;2.53;;;;;;;25.01;100.00;100867.88;5066136;28;20045;-45
2023/08/15 00:47:43;;;;;;;4.18;2.35;;;;;;;25.00;100.00;100869.94;5051107;28;20110;-46
2023/08/15 00:50:10;;;;;;;3.95;2.40;;;;;;;25.04;100.00;100867.59;5045850;28;20075;-45
2023/08/15 00:52:37;;;;;;;4.97;2.45;;;;;;;25.14;100.00;100862.47;5055676;28;20048;-48
2023/08/15 00:55:06;;;;;;;5.22;2.63;;;;;;;25.19;100.00;100867.38;5046137;28;20087;-46
2023/08/15 00:57:36;;;;;;;5.90;2.95;;;;;;;25.01;100.00;100860.09;5048304;28;20506;-47
2023/08/15 01:00:03;;;;;;;3.95;2.17;;;;;;;25.19;100.00;100864.53;5056186;28;20056;-46
2023/08/15 01:02:30;;;;;;;4.45;2.17;;;;;;;25.09;100.00;100860.38;5047367;28;20053;-49
2023/08/15 01:04:57;;;;;;;6.13;2.50;;;;;;;25.05;100.00;100857.81;5011815;28;20056;-48
2023/08/15 01:07:23;;;;;;;6.97;2.72;;;;;;;25.06;100.00;100862.19;5066625;28;20142;-48
2023/08/15 01:09:50;;;;;;;6.03;2.40;;;;;;;24.92;100.00;100865.25;5049173;28;20049;-45
2023/08/15 01:12:22;;;;;;;4.40;2.10;;;;;;;24.93;100.00;100861.91;5050977;28;20084;-45
2023/08/15 01:14:58;;;;;;;6.05;2.58;;;;;;;25.17;100.00;100859.38;5045217;28;20079;-49
2023/08/15 01:17:49;;;;;;;5.00;2.38;;;;;;;24.96;100.00;100848.72;5043547;28;20534;-46
2023/08/15 01:20:22;;;;;;;4.75;2.45;;;;;;;25.00;100.00;100843.59;5044016;28;20049;-43
2023/08/15 01:22:52;;;;;;;5.57;2.85;;;;;;;24.97;100.00;100834.00;5049441;28;20199;-47
2023/08/15 01:25:19;;;;;;;7.15;2.72;;;;;;;24.82;100.00;100822.06;5046302;28;20045;-43
2023/08/15 01:27:45;;;;;;;5.40;2.30;;;;;;;24.92;100.00;100826.25;5045986;28;20182;-43
2023/08/15 01:30:14;;;;;;;4.68;2.50;;;;;;;24.93;100.00;100821.31;5047256;28;20081;-48
2023/08/15 01:32:48;;;;;;;5.70;2.38;;;;;;;25.13;100.00;100827.56;5039843;28;20107;-43
2023/08/15 01:35:16;;;;;;;4.45;2.17;;;;;;;25.05;100.00;100820.03;5047609;28;20052;-45
2023/08/15 01:37:47;;;;;;;5.20;2.63;;;;;;;24.94;100.00;100823.63;5050503;28;20136;-46
2023/08/15 01:40:17;;;;;;;5.55;2.55;;;;;;;25.02;100.00;100819.00;5040836;28;20049;-46
2023/08/15 01:42:46;;;;;;;3.83;2.40;;;;;;;25.08;100.00;100819.81;5048670;28;20102;-44
2023/08/15 01:45:13;;;;;;;5.80;2.72;;;;;;;25.02;100.00;100816.16;5038178;28;20503;-45
2023/08/15 01:47:40;;;;;;;4.50;2.28;;;;;;;25.04;100.00;100807.88;5051769;28;20697;-45
2023/08/15 01:50:07;;;;;;;4.65;2.50;;;;;;;24.87;100.00;100812.78;5040723;28;20095;-49
2023/08/15 01:52:34;;;;;;;4.30;2.35;;;;;;;24.86;100.00;100814.06;5046444;28;20072;-46
2023/08/15 01:55:00;;;;;;;4.90;2.40;;;;;;;24.95;100.00;100808.16;5049374;28;20088;-45
2023/08/15 01:57:27;;;;;;;4.18;2.38;;;;;;;25.16;100.00;100811.50;5043600;28;20073;-45
2023/08/15 09:49:53;;;;;;;8.02;2.40;;;;;;;24.23;100.00;101159.38;5075866;27;20369;-50
2023/08/15 09:52:20;;;;;;;7.63;2.50;;;;;;;24.43;100.00;101159.31;5083081;28;20064;-46
2023/08/15 09:54:47;;;;;;;6.15;2.40;;;;;;;24.63;100.00;101162.06;5085266;28;20095;-47
2023/08/15 09:57:14;;;;;;;3.83;2.35;;;;;;;24.57;100.00;101169.75;5088767;28;20102;-48
2023/08/15 09:59:41;;;;;;;8.63;2.58;;;;;;;24.48;100.00;101167.88;5077575;28;20581;-47
2023/08/15 10:02:20;;;;;;;8.30;2.45;;;;;;;24.79;100.00;101169.97;5075291;28;20140;-47
2023/08/15 10:04:52;;;;;;;6.30;2.35;;;;;;;24.79;100.00;101181.34;5077586;28;20134;-46
2023/08/15 10:07:21;;;;;;;5.57;2.15;;;;;;;24.90;100.00;101172.16;5079652;28;20048;-47
2023/08/15 10:09:50;;;;;;;7.03;2.15;;;;;;;24.87;100.00;101178.84;5078103;28;20623;-46
2023/08/15 10:12:18;;;;;;;4.15;2.08;;;;;;;24.84;100.00;101183.47;5077007;28;20506;-46
2023/08/15 10:14:45;;;;;;;5.78;2.10;;;;;;;24.88;100.00;101178.34;5071053;28;20063;-48
2023/08/15 10:17:12;;;;;;;5.50;2.00;;;;;;;24.89;100.00;101182.72;5075922;28;20048;-46
2023/08/15 10:19:45;;;;;;;6.82;2.20;;;;;;;24.99;100.00;101178.41;5067723;28;20045;-47
2023/08/15 10:22:17;;;;;;;8.57;2.53;;;;;;;24.94;100.00;101181.97;5076118;28;20044;-47
2023/08/15 10:24:44;;;;;;;6.25;2.33;;;;;;;24.96;100.00;101182.25;5076585;28;20049;-45
2023/08/15 10:27:15;;;;;;;7.13;2.05;;;;;;;24.92;100.00;101184.56;5071029;28;20041;-49
2023/08/15 10:29:59;;;;;;;5.45;2.10;;;;;;;25.06;100.00;101194.22;5076359;28;20133;-49
2023/08/15 10:32:28;;;;;;;3.67;2.15;;;;;;;24.93;100.00;101197.50;5068376;28;20052;-50
2023/08/15 10:34:58;;;;;;;4.47;2.00;;;;;;;25.05;100.00;101192.66;5074785;28;20117;-50
2023/08/15 10:37:38;;;;;;;5.55;1.98;;;;;;;25.05;100.00;101190.63;5073729;28;20049;-46
2023/08/15 10:40:12;;;;;;;3.40;2.10;;;;;;;25.13;100.00;101188.06;5072098;28;20044;-46
2023/08/15 10:43:02;;;;;;;4.55;1.95;;;;;;;25.13;100.00;101190.91;5078923;28;20135;-46
2023/08/15 10:45:38;;;;;;;4.55;1.92;;;;;;;25.16;100.00;101187.03;5065331;28;20076;-48
2023/08/15 10:48:05;;;;;;;9.52;2.33;;;;;;;25.09;100.00;101188.31;5076641;28;20504;-47
2023/08/15 10:50:36;;;;;;;4.50;2.00;;;;;;;25.08;100.00;101189.59;5078902;28;20048;-49
2023/08/15 10:53:03;;;;;;;5.80;2.05;;;;;;;25.27;100.00;101192.78;5072475;28;20037;-48
2023/08/15 10:55:33;;;;;;;9.00;2.60;;;;;;;25.10;100.00;101201.25;5069062;28;20114;-50
2023/08/15 10:58:08;;;;;;;4.07;1.90;;;;;;;25.08;100.00;101206.66;5064404;28;20719;-46
2023/08/15 11:00:36;;;;;;;7.75;2.30;;;;;;;25.07;100.00;101199.41;5062895;28;20057;-47
2023/08/15 11:03:03;;;;;;;4.75;2.28;;;;;;;25.05;100.00;101204.03;5059516;28;20080;-49
2023/08/15 11:05:30;;;;;;;10.07;2.08;;;;;;;25.01;100.00;101192.13;5071107;28;20091;-50
2023/08/15 11:08:14;;;;;;;11.63;1.80;;;;;;;25.26;100.00;101199.78;5061118;28;20048;-47
2023/08/15 11:10:48;;;;;;;7.20;2.10;;;;;;;24.90;100.00;101197.75;5062237;28;20098;-49
2023/08/15 11:13:18;;;;;;;10.13;2.40;;;;;;;24.94;100.00;101192.59;5063397;28;20048;-48
2023/08/15 11:15:45;;;;;;;12.43;2.80;;;;;;;25.00;100.00;101185.66;5067834;28;20048;-51
2023/08/15 11:18:22;;;;;;;10.43;2.13;;;;;;;24.90;100.00;101194.91;5063197;28;20049;-47
2023/08/15 11:20:50;;;;;;;6.97;2.20;;;;;;;24.98;100.00;101193.94;5062587;28;20059;-49
2023/08/15 11:23:17;;;;;;;7.40;2.20;;;;;;;25.00;100.00;101197.03;5067865;28;20094;-47
2023/08/15 11:25:43;;;;;;;6.05;2.40;;;;;;;25.01;100.00;101209.94;5063451;28;20081;-49
2023/08/15 11:28:10;;;;;;;12.20;3.33;;;;;;;25.05;100.00;101204.03;5067384;28;20079;-48
2023/08/15 11:30:36;;;;;;;5.00;2.10;;;;;;;25.08;100.00;101203.81;5065691;28;20714;-47
2023/08/15 11:33:03;;;;;;;7.63;3.03;;;;;;;25.00;100.00;101199.88;5061241;28;20104;-47
2023/08/15 11:35:30;;;;;;;7.72;2.97;;;;;;;25.08;100.00;101203.81;5063613;28;20048;-48
2023/08/15 11:38:00;;;;;;;7.70;3.25;;;;;;;25.12;100.00;101218.59;5067617;28;20079;-50
2023/08/15 11:40:27;;;;;;;6.65;2.67;;;;;;;25.12;100.00;101210.06;5066132;28;20048;-51
2023/08/15 11:42:54;;;;;;;8.93;2.60;;;;;;;25.15;100.00;101214.72;5056956;28;20729;-49
2023/08/15 11:45:23;;;;;;;9.55;2.35;;;;;;;24.82;100.00;101214.44;5059045;28;20049;-47
2023/08/15 11:48:00;;;;;;;6.30;2.67;;;;;;;24.77;100.00;101211.56;5056760;28;20060;-49
2023/08/15 11:50:32;;;;;;;7.43;2.63;;;;;;;24.89;100.00;101225.38;5059922;28;20056;-48
2023/08/15 11:53:12;;;;;;;6.35;2.58;;;;;;;24.99;100.00;101217.44;5071035;28;20045;-51
2023/08/15 11:55:39;;;;;;;7.55;2.60;;;;;;;24.87;100.00;101227.94;5064954;28;20086;-43
2023/08/15 11:58:30;;;;;;;7.25;2.50;;;;;;;24.96;100.00;101230.63;5064688;28;20522;-43
2023/08/15 12:01:07;;;;;;;13.45;2.90;;;;;;;25.05;100.00;101223.97;5065716;28;20135;-43
2023/08/15 12:03:34;;;;;;;4.30;2.10;;;;;;;25.11;100.00;101230.47;5059642;28;20072;-47
2023/08/15 12:06:05;;;;;;;7.25;2.20;;;;;;;25.08;100.00;101225.78;5059481;28;20131;-45
2023/08/15 12:08:32;;;;;;;9.18;2.60;;;;;;;25.16;100.00;101221.97;5065475;28;20048;-44
2023/08/15 12:11:03;;;;;;;10.48;2.58;;;;;;;25.17;100.00;101225.63;5061581;28;20048;-48
2023/08/15 12:13:34;;;;;;;4.90;2.08;;;;;;;25.21;100.00;101232.59;5060072;28;20078;-44
2023/08/15 12:16:02;;;;;;;9.32;2.78;;;;;;;24.91;100.00;101224.88;5066312;28;20083;-43
2023/08/15 12:18:30;;;;;;;11.80;2.90;;;;;;;25.02;100.00;101222.91;5061736;28;20145;-44
2023/08/15 12:20:57;;;;;;;6.80;2.53;;;;;;;25.15;100.00;101226.13;5060498;28;20056;-45
2023/08/15 12:23:23;;;;;;;11.00;2.60;;;;;;;25.35;100.00;101223.13;5057284;28;20052;-46
2023/08/15 12:25:55;;;;;;;8.70;2.63;;;;;;;25.41;100.00;101234.56;5054604;28;20101;-44
2023/08/15 12:28:22;;;;;;;7.82;2.75;;;;;;;25.44;100.00;101225.81;5057432;28;20045;-45
2023/08/15 12:30:49;;;;;;;9.20;3.00;;;;;;;25.16;100.00;101224.81;5057855;28;20080;-44
2023/08/15 12:33:16;;;;;;;8.40;2.47;;;;;;;25.26;100.00;101226.19;5056886;28;20048;-43
2023/08/15 12:36:03;;;;;;;9.40;2.65;;;;;;;25.16;100.00;101226.88;5063354;28;20054;-48
2023/08/15 12:38:29;;;;;;;11.30;3.05;;;;;;;25.39;100.00;101231.44;5055822;28;20040;-45
2023/08/15 12:40:56;;;;;;;5.38;2.92;;;;;;;25.22;100.00;101230.53;5065289;28;20041;-45
2023/08/15 12:43:22;;;;;;;11.95;3.20;;;;;;;24.99;100.00;101223.13;5057284;28;20071;-45
2023/08/15 12:45:49;;;;;;;10.40;2.97;;;;;;;25.27;100.00;101230.56;5065504;28;20053;-45
2023/08/15 12:48:15;;;;;;;7.65;3.15;;;;;;;25.26;100.00;101231.88;5066701;28;20055;-43
2023/08/15 12:50:42;;;;;;;8.02;2.60;;;;;;;25.26;100.00;101231.09;5055064;28;20129;-43
2023/08/15 12:53:09;;;;;;;5.25;2.70;;;;;;;25.10;100.00;101226.06;5060921;28;20056;-44
2023/08/15 12:55:35;;;;;;;8.43;2.58;;;;;;;25.19;100.00;101226.66;5061018;28;20135;-43
2023/08/15 12:58:03;;;;;;;9.02;2.60;;;;;;;25.02;100.00;101222.91;5068976;28;20044;-46
2023/08/15 13:00:30;;;;;;;6.15;2.67;;;;;;;25.11;100.00;101210.56;5064528;28;20041;-45
2023/08/15 13:02:57;;;;;;;14.48;3.70;;;;;;;25.08;100.00;101209.53;5065959;28;20044;-47
2023/08/15 13:05:24;;;;;;;9.15;3.03;;;;;;;24.97;100.00;101215.09;5068532;28;20056;-44
2023/08/15 13:07:51;;;;;;;11.85;3.10;;;;;;;25.08;100.00;101217.25;5061102;28;20474;-45
2023/08/15 13:10:17;;;;;;;5.70;2.33;;;;;;;25.05;100.00;101213.38;5068775;28;20461;-44
2023/08/15 13:12:44;;;;;;;12.45;2.88;;;;;;;25.05;100.00;101226.81;5064801;28;20052;-44
2023/08/15 13:15:11;;;;;;;13.25;3.38;;;;;;;24.99;100.00;101215.38;5059303;28;20454;-51
2023/08/15 13:17:38;;;;;;;6.85;2.53;;;;;;;25.07;100.00;101215.72;5060817;28;20053;-44
2023/08/15 13:20:05;;;;;;;7.35;2.80;;;;;;;24.97;100.00;101214.34;5058427;28;20070;-44
2023/08/15 13:22:32;;;;;;;7.93;3.10;;;;;;;25.02;100.00;101207.91;5053160;28;20142;-45
2023/08/15 13:24:58;;;;;;;9.20;3.15;;;;;;;24.98;100.00;101210.19;5049126;28;20798;-45
2023/08/15 13:27:25;;;;;;;6.55;3.00;;;;;;;24.98;100.00;101211.00;5053238;28;20127;-46
2023/08/15 13:29:51;;;;;;;5.30;3.00;;;;;;;24.99;100.00;101201.16;5064471;28;20621;-46
2023/08/15 13:32:18;;;;;;;8.80;3.50;;;;;;;25.00;100.00;101202.72;5066060;28;20149;-48
2023/08/15 13:34:45;;;;;;;8.07;3.03;;;;;;;24.95;100.00;101203.47;5059192;28;20454;-45
2023/08/15 13:37:11;;;;;;;13.27;3.58;;;;;;;25.12;100.00;101197.88;5066679;28;20502;-47
2023/08/15 13:39:38;;;;;;;8.98;3.15;;;;;;;25.30;100.00;101203.97;5072311;28;20048;-46
2023/08/15 13:42:05;;;;;;;10.25;3.33;;;;;;;25.11;100.00;101196.34;5063245;28;20128;-46
2023/08/15 13:44:31;;;;;;;12.32;3.50;;;;;;;25.32;100.00;101192.84;5055868;28;20072;-43
2023/08/15 13:46:58;;;;;;;10.10;3.42;;;;;;;25.11;100.00;101199.19;5055561;28;20140;-48
2023/08/15 13:49:24;;;;;;;7.28;2.60;;;;;;;25.02;100.00;101205.06;5063438;28;20129;-46
2023/08/15 13:51:51;;;;;;;7.43;2.90;;;;;;;24.86;100.00;101206.50;5067375;28;20053;-45
2023/08/15 13:54:17;;;;;;;5.18;2.67;;;;;;;25.25;100.00;101201.88;5059562;28;20088;-44
2023/08/15 13:56:44;;;;;;;7.47;2.65;;;;;;;25.25;100.00;101207.56;5065082;28;20110;-45
2023/08/15 13:59:10;;;;;;;10.95;3.38;;;;;;;25.16;100.00;101213.44;5064049;28;20486;-47
2023/08/15 14:01:37;;;;;;;10.07;3.15;;;;;;;25.37;100.00;101214.06;5061918;28;20072;-48
2023/08/15 14:04:04;;;;;;;6.60;2.88;;;;;;;25.41;100.00;101208.94;5064177;28;20055;-45
2023/08/15 14:06:30;;;;;;;9.52;3.20;;;;;;;25.30;100.00;101212.50;5066334;28;20049;-46
2023/08/15 14:08:57;;;;;;;10.45;2.75;;;;;;;25.21;100.00;101201.31;5059931;28;20060;-46
2023/08/15 14:11:23;;;;;;;8.43;2.63;;;;;;;25.28;100.00;101212.22;5065160;28;20048;-45
2023/08/15 14:13:50;;;;;;;7.32;2.58;;;;;;;25.33;100.00;101205.00;5058455;28;20506;-44
2023/08/15 14:16:17;;;;;;;7.80;3.00;;;;;;;25.40;100.00;101198.81;5056625;28;20048;-43
2023/08/15 14:18:43;;;;;;;6.70;2.80;;;;;;;25.38;100.00;101205.03;5059988;28;20049;-45
2023/08/15 14:21:10;;;;;;;8.73;3.15;;;;;;;25.16;100.00;101201.28;5057453;28;20506;-45
2023/08/15 14:23:43;;;;;;;6.55;2.70;;;;;;;25.10;100.00;101204.09;5052379;28;20056;-46
2023/08/15 14:26:10;;;;;;;8.85;3.30;;;;;;;25.02;100.00;101193.69;5061975;28;20602;-44
2023/08/15 14:28:37;;;;;;;4.93;2.53;;;;;;;25.04;100.00;101203.25;5066829;28;20056;-46
2023/08/15 14:31:04;;;;;;;8.98;2.90;;;;;;;25.04;100.00;101205.34;5062482;28;20040;-46
2023/08/15 14:33:31;;;;;;;10.18;3.15;;;;;;;25.07;100.00;101207.19;5052649;28;20763;-44
2023/08/15 14:35:58;;;;;;;8.75;2.88;;;;;;;25.15;100.00;101211.91;5068193;28;20105;-48
2023/08/15 14:38:28;;;;;;;7.63;3.15;;;;;;;25.07;100.00;101207.19;5061123;28;20052;-45
2023/08/15 14:40:55;;;;;;;10.50;3.33;;;;;;;24.95;100.00;101212.00;5070406;28;20048;-44
2023/08/15 14:43:21;;;;;;;12.98;3.72;;;;;;;24.98;100.00;101205.31;5059874;28;20069;-44
2023/08/15 14:45:48;;;;;;;7.97;3.30;;;;;;;25.09;100.00;101213.13;5058185;28;20835;-45
2023/08/15 14:48:14;;;;;;;9.02;3.35;;;;;;;24.93;100.00;101203.19;5064170;28;20629;-43
2023/08/15 14:50:41;;;;;;;8.48;3.35;;;;;;;25.05;100.00;101204.84;5057624;28;20461;-45
2023/08/15 14:53:08;;;;;;;6.07;3.05;;;;;;;24.93;100.00;101206.03;5064401;28;20049;-49
2023/08/15 14:55:35;;;;;;;8.27;3.13;;;;;;;24.87;100.00;101208.03;5068459;28;20123;-45
2023/08/15 14:58:02;;;;;;;8.68;2.72;;;;;;;24.87;100.00;101202.34;5070936;28;20047;-45
2023/08/15 15:00:28;;;;;;;7.20;2.90;;;;;;;24.91;100.00;101202.13;5067133;28;20561;-48
2023/08/15 15:02:55;;;;;;;9.10;3.42;;;;;;;25.03;100.00;101206.59;5063143;28;20048;-45
2023/08/15 15:05:22;;;;;;;10.10;3.75;;;;;;;24.97;100.00;101203.72;5070344;28;20083;-46
2023/08/15 15:07:49;;;;;;;7.63;3.22;;;;;;;25.02;100.00;101214.38;5066893;28;20060;-45
2023/08/15 15:10:16;;;;;;;9.13;3.63;;;;;;;25.01;100.00;101200.66;5071273;28;20102;-44
2023/08/15 15:12:42;;;;;;;10.75;3.17;;;;;;;24.88;100.00;101206.00;5067326;28;20673;-42
2023/08/15 15:15:09;;;;;;;13.25;3.58;;;;;;;25.33;100.00;101207.84;5069284;28;20086;-45
2023/08/15 15:17:36;;;;;;;8.60;3.05;;;;;;;25.51;100.00;101204.63;5065042;28;20053;-41
2023/08/15 15:20:03;;;;;;;13.38;3.55;;;;;;;25.55;100.00;101202.31;5066503;28;20036;-42
2023/08/15 15:22:30;;;;;;;11.35;3.22;;;;;;;25.50;100.00;101203.06;5058749;28;20410;-42
2023/08/15 15:24:57;;;;;;;9.57;2.97;;;;;;;25.58;100.00;101198.47;5070126;28;20495;-42
2023/08/15 15:27:24;;;;;;;6.55;3.28;;;;;;;25.51;100.00;101198.94;5059562;28;20056;-45
2023/08/15 15:29:51;;;;;;;10.02;2.95;;;;;;;25.59;100.00;101203.63;5067836;28;20098;-42
2023/08/15 15:32:17;;;;;;;7.65;3.00;;;;;;;25.72;100.00;101198.25;5067694;28;20075;-44
2023/08/15 15:34:44;;;;;;;7.78;3.20;;;;;;;25.66;100.00;101197.47;5072465;28;20139;-45
2023/08/15 15:37:10;;;;;;;9.07;3.40;;;;;;;25.55;100.00;101199.47;5069207;28;20040;-42
2023/08/15 15:39:37;;;;;;;10.60;3.33;;;;;;;25.50;100.00;101195.31;5070815;28;20094;-43
2023/08/15 15:42:03;;;;;;;10.20;3.05;;;;;;;25.46;100.00;101194.78;5067223;28;20174;-47
2023/08/15 15:44:33;;;;;;;10.05;3.35;;;;;;;25.25;100.00;101189.69;5070087;28;20517;-45
2023/08/15 15:47:01;;;;;;;7.72;3.63;;;;;;;25.32;100.00;101194.91;5060547;28;20486;-44
2023/08/15 15:49:27;;;;;;;9.43;3.40;;;;;;;25.41;100.00;101194.72;5070295;28;20076;-46
2023/08/15 15:51:54;;;;;;;7.47;3.17;;;;;;;25.34;100.00;101198.03;5063910;28;20056;-45
2023/08/15 15:54:21;;;;;;;7.30;2.95;;;;;;;25.31;100.00;101199.06;5067869;28;20525;-43
2023/08/15 15:56:47;;;;;;;10.02;3.35;;;;;;;25.44;100.00;101200.19;5066713;28;20079;-43
2023/08/15 15:59:14;;;;;;;22.10;3.90;;;;;;;25.25;100.00;101196.19;5063848;28;20503;-44
2023/08/15 16:01:41;;;;;;;12.80;3.60;;;;;;;25.16;100.00;101199.22;5062811;28;20135;-47
2023/08/15 16:04:07;;;;;;;9.38;3.13;;;;;;;25.21;100.00;101200.53;5064471;28;20576;-45
2023/08/15 16:06:34;;;;;;;10.38;3.38;;;;;;;25.29;100.00;101207.31;5066655;28;20086;-47
2023/08/15 16:09:00;;;;;;;13.02;3.50;;;;;;;25.16;100.00;101201.28;5073975;28;20511;-43
2023/08/15 16:11:27;;;;;;;9.55;3.25;;;;;;;25.28;100.00;101205.75;5072079;28;20044;-42
2023/08/15 16:13:53;;;;;;;10.27;3.67;;;;;;;25.29;100.00;101213.78;5065626;28;20592;-43
2023/08/15 16:16:20;;;;;;;10.50;3.50;;;;;;;25.30;100.00;101212.50;5062760;28;20079;-44
2023/08/15 16:18:47;;;;;;;6.97;3.28;;;;;;;25.28;100.00;101203.66;5051320;28;20135;-42
2023/08/15 16:21:15;;;;;;;8.48;3.25;;;;;;;25.27;100.00;101210.66;5059575;28;20135;-42
2023/08/15 16:23:44;;;;;;;10.70;3.28;;;;;;;25.28;100.00;101214.28;5060025;28;20662;-43
2023/08/15 16:26:11;;;;;;;10.32;3.22;;;;;;;25.32;100.00;101218.47;5058355;28;20106;-45
2023/08/15 16:28:40;;;;;;;15.38;3.97;;;;;;;25.35;100.00;101211.72;5065515;28;20131;-43
2023/08/15 16:31:07;;;;;;;9.75;3.25;;;;;;;25.64;100.00;101222.81;5067439;28;20052;-43
2023/08/15 16:33:33;;;;;;;9.77;3.50;;;;;;;25.56;100.00;101212.41;5052368;28;20060;-48
2023/08/15 16:36:00;;;;;;;8.48;3.10;;;;;;;25.73;100.00;101216.91;5042297;28;20198;-45
2023/08/15 16:38:27;;;;;;;10.43;3.72;;;;;;;25.75;100.00;101213.53;5057269;28;20094;-43
2023/08/15 16:40:54;;;;;;;10.50;3.63;;;;;;;25.64;100.00;101211.41;5046096;28;20642;-45
2023/08/15 16:43:21;;;;;;;9.60;3.45;;;;;;;25.45;100.00;101215.97;5043730;28;20074;-42
2023/08/15 16:45:47;;;;;;;10.55;4.55;;;;;;;25.36;100.00;101207.63;5040153;28;20057;-43
2023/08/15 16:48:14;;;;;;;10.88;3.50;;;;;;;25.41;100.00;101214.63;5044662;28;20048;-43
2023/08/15 16:50:42;;;;;;;11.77;4.00;;;;;;;25.47;100.00;101213.41;5059118;28;20052;-47
2023/08/15 16:53:09;;;;;;;11.35;3.45;;;;;;;25.39;100.00;101218.00;5047791;28;20076;-44
2023/08/15 16:55:36;;;;;;;9.68;3.10;;;;;;;25.42;100.00;101221.88;5044120;28;20052;-45
2023/08/15 16:58:03;;;;;;;9.38;3.42;;;;;;;25.45;100.00;101218.81;5043562;28;20060;-43
2023/08/15 17:00:29;;;;;;;10.13;4.10;;;;;;;25.33;100.00;101224.91;5045886;28;20538;-43
2023/08/15 17:02:56;;;;;;;8.77;3.75;;;;;;;25.38;100.00;101230.66;5044155;28;20123;-44
2023/08/15 17:05:24;;;;;;;8.35;3.47;;;;;;;25.30;100.00;101223.88;5046470;28;20052;-45
2023/08/15 17:07:51;;;;;;;12.98;3.60;;;;;;;25.59;100.00;101231.31;5045281;28;20530;-44
2023/08/15 17:10:18;;;;;;;11.77;4.00;;;;;;;25.46;100.00;101223.25;5058698;28;20063;-43
2023/08/15 17:12:46;;;;;;;11.70;3.47;;;;;;;25.30;100.00;101225.94;5045955;28;20194;-47
2023/08/15 17:15:15;;;;;;;10.15;3.45;;;;;;;25.39;100.00;101223.69;5057898;28;20044;-43
2023/08/15 17:17:44;;;;;;;8.13;3.33;;;;;;;25.33;100.00;101224.91;5053866;28;20060;-44
2023/08/15 17:20:11;;;;;;;6.68;3.58;;;;;;;25.36;100.00;101226.75;5042963;28;20048;-44
2023/08/15 17:22:38;;;;;;;9.48;3.60;;;;;;;25.32;100.00;101229.06;5043763;28;20142;-43
2023/08/15 17:25:05;;;;;;;7.78;3.45;;;;;;;25.26;100.00;101225.41;5043721;28;20048;-47
2023/08/15 17:27:31;;;;;;;13.45;4.05;;;;;;;25.29;100.00;101224.38;5053241;28;20048;-42
2023/08/15 17:29:58;;;;;;;10.63;3.70;;;;;;;25.24;100.00;101228.75;5063682;28;20502;-44
2023/08/15 17:32:25;;;;;;;10.77;3.70;;;;;;;25.39;100.00;101231.44;5059527;28;20078;-45
2023/08/15 17:34:52;;;;;;;9.52;3.67;;;;;;;25.34;100.00;101235.78;5046476;28;20077;-45
2023/08/15 17:37:18;;;;;;;9.27;4.28;;;;;;;25.51;100.00;101239.56;5042337;28;20221;-42
2023/08/15 17:39:45;;;;;;;10.70;3.55;;;;;;;25.47;100.00;101243.91;5043302;28;20057;-47
2023/08/15 17:42:11;;;;;;;9.88;3.45;;;;;;;25.41;100.00;101237.41;5042681;28;20118;-45
2023/08/15 17:44:38;;;;;;;8.13;3.70;;;;;;;25.42;100.00;101239.75;5041040;28;20118;-44
2023/08/15 17:47:05;;;;;;;8.90;3.72;;;;;;;25.36;100.00;101240.97;5042797;28;20645;-43
2023/08/15 17:49:32;;;;;;;30.88;3.95;;;;;;;25.32;100.00;101238.38;5039582;28;20053;-42
2023/08/15 17:51:59;;;;;;;9.75;3.55;;;;;;;25.35;100.00;101245.13;5075527;28;20376;-46
2023/08/15 17:54:26;;;;;;;8.27;3.47;;;;;;;25.44;100.00;101239.25;5055773;28;20130;-46
2023/08/15 17:56:52;;;;;;;12.90;3.90;;;;;;;25.38;100.00;101244.88;5059476;28;20131;-43
2023/08/15 17:59:19;;;;;;;8.23;3.58;;;;;;;25.38;100.00;101250.56;5058278;28;20091;-47
2023/08/15 18:01:45;;;;;;;6.63;3.25;;;;;;;25.18;100.00;101247.84;5061698;28;20495;-46
2023/08/15 18:04:12;;;;;;;9.88;3.28;;;;;;;25.23;100.00;101249.16;5058106;28;20044;-44
2023/08/15 18:06:39;;;;;;;7.95;3.50;;;;;;;25.27;100.00;101253.34;5065007;28;20133;-46
2023/08/15 18:09:05;;;;;;;11.90;4.32;;;;;;;25.28;100.00;101252.06;5060868;28;20052;-42
2023/08/15 18:11:32;;;;;;;10.43;3.72;;;;;;;25.26;100.00;101251.78;5062653;28;20048;-44
2023/08/15 18:14:00;;;;;;;10.15;3.42;;;;;;;25.27;100.00;101261.88;5060148;28;20094;-46
2023/08/15 18:16:27;;;;;;;8.52;3.50;;;;;;;25.26;100.00;101260.34;5073047;28;20067;-43
2023/08/15 18:18:54;;;;;;;9.07;4.00;;;;;;;25.30;100.00;101262.94;5061863;28;20055;-45
2023/08/15 18:21:21;;;;;;;11.38;3.88;;;;;;;25.30;100.00;101265.78;5071752;28;20048;-44
2023/08/15 18:23:47;;;;;;;13.10;3.60;;;;;;;25.19;100.00;101268.53;5069508;28;20045;-43
2023/08/15 18:26:14;;;;;;;11.18;3.22;;;;;;;25.33;100.00;101273.31;5067389;28;20044;-47
2023/08/15 18:28:41;;;;;;;7.28;2.90;;;;;;;25.30;100.00;101275.09;5078160;28;20075;-44
2023/08/15 18:31:08;;;;;;;10.60;3.75;;;;;;;25.26;100.00;101277.41;5070533;28;20052;-43
2023/08/15 18:33:34;;;;;;;12.45;3.85;;;;;;;25.29;100.00;101289.84;5069576;28;20048;-45
2023/08/15 18:36:01;;;;;;;9.68;4.10;;;;;;;25.28;100.00;101291.13;5069417;28;20048;-44
2023/08/15 18:38:29;;;;;;;9.55;4.22;;;;;;;25.30;100.00;101288.53;5069210;28;20052;-42
2023/08/15 18:40:56;;;;;;;9.40;4.15;;;;;;;25.33;100.00;101294.00;5071128;28;20467;-44
2023/08/15 18:43:23;;;;;;;9.90;4.22;;;;;;;25.38;100.00;101298.94;5071868;28;20105;-49
2023/08/15 18:45:49;;;;;;;9.38;3.92;;;;;;;25.21;100.00;101295.19;5066145;28;20048;-45
2023/08/15 18:48:18;;;;;;;12.52;4.53;;;;;;;25.34;100.00;101303.34;5057557;28;20140;-42
2023/08/15 18:50:44;;;;;;;7.45;3.90;;;;;;;25.43;100.00;101306.75;5059694;28;20049;-43
2023/08/15 18:53:11;;;;;;;14.35;4.88;;;;;;;25.51;100.00;101313.56;5059359;28;20076;-48
2023/08/15 18:55:40;;;;;;;13.80;4.88;;;;;;;25.45;100.00;101315.59;5070520;28;20040;-44
2023/08/15 18:58:09;;;;;;;11.15;4.60;;;;;;;25.52;100.00;101322.91;5065127;28;20068;-45
2023/08/15 19:00:38;;;;;;;12.80;5.00;;;;;;;25.26;100.00;101325.78;5063141;28;20041;-43
2023/08/15 19:03:05;;;;;;;11.88;4.97;;;;;;;25.40;100.00;101321.22;5064955;28;20124;-42
2023/08/15 19:05:32;;;;;;;14.98;5.18;;;;;;;25.44;100.00;101325.44;5070032;28;20056;-43
2023/08/15 19:07:59;;;;;;;18.65;5.70;;;;;;;25.24;100.00;101321.88;5066792;28;20127;-43